Time;durP1;ratioP1;P1;durP2;ratioP2;P2;SDS_P1;SDS_P2;PMS_P1;PMS_P2;Temp;Humidity;BMP_temperature;BMP_pressure;BME280_temperature;BME280_humidity;BME280_pressure;Samples;Min_cycle;Max_cycle;Signal;HPM_P1;HPM_P2
2022/07/04 00:00:26;;;;;;;14.20;5.63;;;;;;;23.38;65.46;100310.66;5037411;28;20395;-64
2022/07/04 00:02:52;;;;;;;14.52;5.80;;;;;;;23.29;65.96;100310.06;5029412;28;20032;-65
2022/07/04 00:05:18;;;;;;;15.30;5.70;;;;;;;23.29;65.83;100312.78;5037064;28;20028;-63
2022/07/04 00:07:45;;;;;;;14.88;6.22;;;;;;;22.97;66.08;100267.19;5049322;28;20025;-64
2022/07/04 00:10:14;;;;;;;12.57;5.85;;;;;;;23.22;66.24;100311.94;5038631;28;20420;-65
2022/07/04 00:12:40;;;;;;;11.80;5.63;;;;;;;23.12;66.37;100306.06;5049527;28;20110;-63
2022/07/04 00:15:06;;;;;;;16.02;5.75;;;;;;;23.13;66.47;100315.13;5037028;28;20060;-65
2022/07/04 00:17:32;;;;;;;16.83;6.00;;;;;;;23.04;66.49;100309.06;5029533;28;20495;-63
2022/07/04 00:19:58;;;;;;;13.27;5.97;;;;;;;22.95;66.86;100304.03;5031814;28;20025;-65
2022/07/04 00:22:23;;;;;;;11.15;5.45;;;;;;;22.93;67.00;100307.00;5039025;28;20487;-63
2022/07/04 00:24:49;;;;;;;16.00;6.13;;;;;;;22.88;67.01;100308.66;5047391;28;20029;-63
2022/07/04 00:27:15;;;;;;;14.75;6.18;;;;;;;22.80;67.26;100315.22;5035438;28;20056;-63
2022/07/04 00:29:41;;;;;;;11.07;5.85;;;;;;;22.74;67.46;100307.88;5046347;28;20025;-63
2022/07/04 00:32:07;;;;;;;10.90;5.57;;;;;;;22.70;67.81;100311.25;5029333;28;20025;-64
2022/07/04 00:34:32;;;;;;;12.23;5.50;;;;;;;22.67;67.78;100319.88;5029063;28;20033;-63
2022/07/04 00:36:58;;;;;;;10.45;5.90;;;;;;;22.59;67.77;100310.00;5042636;28;20021;-63
2022/07/04 00:39:23;;;;;;;16.15;6.25;;;;;;;22.41;67.90;100282.44;5044156;28;20091;-64
2022/07/04 00:41:49;;;;;;;13.98;5.60;;;;;;;22.53;68.24;100321.78;5043209;28;20053;-64
2022/07/04 00:44:15;;;;;;;7.80;5.18;;;;;;;22.48;68.22;100324.28;5046193;28;20041;-64
2022/07/04 00:46:45;;;;;;;14.27;5.70;;;;;;;22.33;68.18;100304.50;5036368;28;20487;-64
2022/07/04 00:49:12;;;;;;;12.15;5.18;;;;;;;22.40;68.31;100327.22;5031392;28;20134;-64
2022/07/04 00:51:39;;;;;;;11.77;5.53;;;;;;;22.37;68.53;100332.28;5049441;28;20048;-65
2022/07/04 00:54:06;;;;;;;9.80;5.07;;;;;;;22.34;68.53;100330.78;5047700;28;20686;-65
2022/07/04 00:56:35;;;;;;;9.57;5.28;;;;;;;22.29;69.21;100330.59;5048973;28;20064;-63
2022/07/04 00:59:00;;;;;;;8.43;4.97;;;;;;;22.18;69.23;100321.13;5031128;28;20048;-64
2022/07/04 01:01:26;;;;;;;11.40;5.13;;;;;;;22.18;68.79;100323.00;5040536;28;20029;-64
2022/07/04 01:03:51;;;;;;;10.77;5.28;;;;;;;22.18;69.33;100323.00;5047322;28;20033;-65
2022/07/04 01:06:19;;;;;;;9.10;4.78;;;;;;;22.15;68.81;100324.25;5047451;28;20033;-65
2022/07/04 01:08:44;;;;;;;11.35;5.53;;;;;;;22.15;68.91;100323.41;5039384;28;20025;-63
2022/07/04 01:11:11;;;;;;;10.90;4.68;;;;;;;22.13;69.04;100320.06;5036900;28;20027;-64
2022/07/04 01:13:36;;;;;;;12.23;5.15;;;;;;;22.14;69.03;100327.19;5030779;28;20512;-63
2022/07/04 01:16:03;;;;;;;11.13;5.35;;;;;;;22.09;68.92;100329.72;5028310;28;20036;-63
2022/07/04 01:18:29;;;;;;;9.18;5.30;;;;;;;22.08;69.64;100325.31;5026691;28;20021;-64
2022/07/04 01:20:54;;;;;;;6.70;5.10;;;;;;;22.03;69.65;100317.72;5032353;28;20080;-64
2022/07/04 01:23:20;;;;;;;9.98;5.40;;;;;;;21.98;69.80;100322.13;5030548;28;20071;-64
2022/07/04 01:25:46;;;;;;;11.05;6.00;;;;;;;21.86;69.80;100308.25;5039619;28;20036;-64
2022/07/04 01:28:12;;;;;;;12.45;5.60;;;;;;;21.85;69.65;100316.66;5036659;28;20060;-64
2022/07/04 01:30:37;;;;;;;9.25;5.30;;;;;;;21.75;69.74;100300.69;5031350;28;20072;-64
2022/07/04 01:33:04;;;;;;;10.02;5.82;;;;;;;21.74;69.72;100309.09;5031614;28;20029;-64
2022/07/04 01:35:30;;;;;;;9.85;5.75;;;;;;;21.71;69.83;100309.47;5031686;28;20527;-64
2022/07/04 01:37:56;;;;;;;7.65;5.00;;;;;;;21.65;70.30;100316.59;5031496;28;20446;-65
2022/07/04 01:40:22;;;;;;;12.40;5.47;;;;;;;21.59;70.34;100316.56;5034665;28;20029;-64
2022/07/04 01:42:47;;;;;;;11.63;5.75;;;;;;;21.54;70.23;100313.63;5051288;28;20052;-64
2022/07/04 01:45:13;;;;;;;6.22;4.55;;;;;;;21.49;70.23;100319.69;5051221;28;20032;-64
2022/07/04 01:47:39;;;;;;;8.35;5.25;;;;;;;21.43;70.38;100328.69;5047983;28;20039;-64
2022/07/04 01:50:07;;;;;;;9.98;4.85;;;;;;;21.41;70.41;100328.03;5039289;28;20029;-64
2022/07/04 01:52:33;;;;;;;18.50;5.40;;;;;;;21.37;70.41;100324.03;5038700;28;20034;-66
2022/07/04 01:54:58;;;;;;;11.90;5.32;;;;;;;21.32;70.45;100325.69;5046857;28;20215;-64
2022/07/04 01:57:24;;;;;;;8.00;5.22;;;;;;;21.24;70.45;100318.53;5050950;28;20120;-64
2022/07/04 02:02:33;;;;;;;9.30;5.88;;;;;;;21.21;70.83;100329.00;5043437;28;20128;-64
2022/07/04 02:04:59;;;;;;;11.30;5.43;;;;;;;21.16;70.59;100331.50;5031084;28;20112;-63
2022/07/04 02:07:24;;;;;;;13.13;5.22;;;;;;;21.16;70.74;100332.34;5050578;28;20078;-63
2022/07/04 02:09:50;;;;;;;6.15;4.90;;;;;;;21.11;70.53;100329.38;5048262;28;20357;-64
2022/07/04 02:15:08;;;;;;;7.20;5.10;;;;;;;21.08;71.10;100337.09;5037470;28;20040;-63
2022/07/04 02:17:33;;;;;;;13.20;5.90;;;;;;;21.08;71.06;100339.84;5037225;28;20045;-64
2022/07/04 02:19:58;;;;;;;11.63;5.28;;;;;;;21.06;71.06;100336.50;5036884;28;20029;-64
2022/07/04 02:22:24;;;;;;;6.45;4.93;;;;;;;21.03;71.23;100342.34;5051234;28;20029;-63
2022/07/04 02:24:50;;;;;;;9.85;5.07;;;;;;;21.04;71.43;100347.59;5049861;28;20105;-63
2022/07/04 02:27:15;;;;;;;9.20;5.25;;;;;;;20.97;71.27;100344.00;5051474;28;20432;-65
2022/07/04 02:29:41;;;;;;;9.27;5.57;;;;;;;21.00;71.74;100356.38;5051322;28;20139;-64
2022/07/04 02:32:07;;;;;;;8.52;4.70;;;;;;;20.98;71.45;100353.00;5050628;28;20131;-64
2022/07/04 02:34:32;;;;;;;8.18;5.22;;;;;;;20.89;71.69;100341.38;5048274;28;20155;-64
2022/07/04 02:36:58;;;;;;;13.35;6.50;;;;;;;20.88;71.68;100345.16;5045752;28;20044;-64
2022/07/04 02:39:24;;;;;;;9.45;5.80;;;;;;;20.90;71.76;100356.72;5040107;28;20103;-63
2022/07/04 02:41:49;;;;;;;10.80;5.60;;;;;;;20.84;71.64;100349.34;5030667;28;20425;-63
2022/07/04 02:44:15;;;;;;;9.95;5.45;;;;;;;20.88;71.63;100363.38;5040940;28;20108;-64
2022/07/04 02:46:40;;;;;;;9.50;5.95;;;;;;;20.84;71.54;100365.69;5044053;28;20054;-64
2022/07/04 02:49:06;;;;;;;10.20;5.88;;;;;;;20.78;71.64;100373.81;5047004;28;20316;-64
2022/07/04 02:51:31;;;;;;;13.38;6.55;;;;;;;20.73;71.90;100370.84;5046157;28;20064;-64
2022/07/04 02:53:57;;;;;;;7.78;5.82;;;;;;;20.65;72.06;100373.72;5044846;28;20084;-64
2022/07/04 02:56:23;;;;;;;8.40;5.85;;;;;;;20.62;72.11;100382.28;5050710;28;20039;-63
2022/07/04 02:58:49;;;;;;;10.32;6.22;;;;;;;20.55;72.48;100379.53;5042138;28;20029;-64
2022/07/04 03:01:14;;;;;;;11.05;5.78;;;;;;;20.46;72.55;100368.94;5035162;28;20050;-62
2022/07/04 03:03:40;;;;;;;16.05;6.00;;;;;;;20.48;72.82;100381.34;5032184;28;20041;-62
2022/07/04 03:06:10;;;;;;;14.10;5.97;;;;;;;20.45;72.82;100375.44;5031738;28;20037;-63
2022/07/04 03:08:36;;;;;;;18.10;5.78;;;;;;;20.45;72.65;100383.63;5029904;28;20025;-63
2022/07/04 03:11:02;;;;;;;10.68;5.85;;;;;;;20.44;72.92;100381.94;5029660;28;20021;-64
2022/07/04 03:13:27;;;;;;;12.27;6.03;;;;;;;20.42;72.95;100375.81;5031785;28;20036;-64
2022/07/04 03:15:53;;;;;;;9.85;5.55;;;;;;;20.45;73.23;100383.63;5029716;28;20032;-63
2022/07/04 03:18:19;;;;;;;18.45;5.75;;;;;;;20.45;73.31;100380.88;5031957;28;20073;-63
2022/07/04 03:20:44;;;;;;;6.53;4.65;;;;;;;20.46;73.40;100385.28;5032827;28;20038;-65
2022/07/04 03:23:10;;;;;;;6.40;5.32;;;;;;;20.50;73.10;100389.34;5029122;28;20025;-63
2022/07/04 03:25:36;;;;;;;7.97;5.72;;;;;;;20.51;73.11;100377.38;5030290;28;20029;-64
2022/07/04 03:28:02;;;;;;;11.13;5.05;;;;;;;20.49;73.00;100379.44;5030465;28;20550;-64
2022/07/04 03:30:28;;;;;;;9.25;5.57;;;;;;;20.56;73.34;100374.88;5030186;28;20033;-63
2022/07/04 03:32:54;;;;;;;9.55;5.55;;;;;;;20.43;72.84;100345.66;5041605;28;20021;-64
2022/07/04 03:35:19;;;;;;;8.02;4.70;;;;;;;20.66;73.27;100375.41;5045863;28;20037;-64
2022/07/04 03:37:45;;;;;;;9.07;4.78;;;;;;;20.74;73.41;100378.84;5030210;28;20036;-63
2022/07/04 03:40:11;;;;;;;12.55;5.30;;;;;;;20.81;73.44;100376.16;5040557;28;20056;-62
2022/07/04 03:42:36;;;;;;;9.85;5.03;;;;;;;20.88;72.62;100368.84;5029436;28;20072;-63
2022/07/04 03:45:03;;;;;;;10.55;4.55;;;;;;;21.11;71.33;100372.16;5038465;28;20025;-64
2022/07/04 03:47:29;;;;;;;6.15;4.40;;;;;;;21.26;70.58;100375.63;5049746;28;20386;-64
2022/07/04 03:49:54;;;;;;;8.75;4.80;;;;;;;21.42;69.99;100378.00;5031110;28;20033;-64
2022/07/04 03:52:20;;;;;;;5.75;4.47;;;;;;;21.58;69.53;100375.78;5034147;28;20081;-63
2022/07/04 03:54:45;;;;;;;7.50;4.63;;;;;;;21.70;68.40;100370.59;5029303;28;20523;-63
2022/07/04 03:57:11;;;;;;;5.80;4.95;;;;;;;21.93;67.40;100368.38;5029666;28;20049;-64
2022/07/04 03:59:36;;;;;;;8.68;4.40;;;;;;;22.11;66.89;100372.19;5029700;28;20037;-64
2022/07/04 04:02:02;;;;;;;13.52;4.78;;;;;;;22.23;66.04;100361.47;5030776;28;20032;-64
2022/07/04 04:07:13;;;;;;;21.13;5.25;;;;;;;22.59;64.60;100367.41;5034065;28;20607;-63
2022/07/04 04:09:38;;;;;;;9.82;4.95;;;;;;;22.76;63.54;100365.09;5030779;28;20104;-64
2022/07/04 04:12:04;;;;;;;10.57;4.43;;;;;;;22.98;62.99;100367.38;5030970;28;20067;-64
2022/07/04 04:14:30;;;;;;;8.20;4.72;;;;;;;23.06;61.91;100352.63;5031860;28;20057;-65
2022/07/04 04:16:55;;;;;;;9.27;4.78;;;;;;;23.27;61.21;100364.16;5029183;28;20048;-64
2022/07/04 04:19:21;;;;;;;10.45;4.80;;;;;;;23.32;60.55;100360.78;5029227;28;20044;-64
2022/07/04 04:21:46;;;;;;;11.45;4.28;;;;;;;23.49;59.98;100365.56;5029014;28;20029;-64
2022/07/04 04:24:12;;;;;;;10.00;5.35;;;;;;;23.68;58.98;100369.28;5038688;28;20033;-63
2022/07/04 04:26:37;;;;;;;9.25;4.50;;;;;;;23.79;58.54;100379.53;5049330;28;20063;-63
2022/07/04 04:29:03;;;;;;;17.75;4.53;;;;;;;23.87;58.67;100373.81;5039276;28;20041;-64
2022/07/04 04:31:30;;;;;;;6.30;4.43;;;;;;;23.96;58.31;100370.63;5035480;28;20460;-64
2022/07/04 04:33:56;;;;;;;8.30;4.15;;;;;;;24.15;57.61;100386.09;5043596;28;20055;-64
2022/07/04 04:36:22;;;;;;;11.50;4.68;;;;;;;24.24;57.57;100386.69;5048955;28;20396;-60
2022/07/04 04:38:47;;;;;;;7.90;4.50;;;;;;;24.31;57.60;100385.56;5032394;28;20041;-59
2022/07/04 04:41:13;;;;;;;9.30;4.40;;;;;;;24.40;57.56;100380.66;5028661;28;20395;-59
2022/07/04 04:43:38;;;;;;;11.45;4.60;;;;;;;24.51;57.04;100379.97;5028859;28;20029;-59
2022/07/04 04:46:04;;;;;;;9.07;4.72;;;;;;;24.58;57.02;100363.44;5038539;28;20037;-63
2022/07/04 04:48:29;;;;;;;10.00;4.95;;;;;;;24.73;56.64;100367.53;5048669;28;20025;-64
2022/07/04 04:50:55;;;;;;;5.95;4.50;;;;;;;24.80;56.30;100362.00;5036716;28;20040;-64
2022/07/04 04:53:23;;;;;;;11.32;4.55;;;;;;;24.86;55.81;100359.19;5035422;28;20053;-64
2022/07/04 04:55:48;;;;;;;6.95;4.60;;;;;;;25.11;55.33;100361.91;5051718;28;20114;-64
2022/07/04 04:58:13;;;;;;;9.75;4.47;;;;;;;25.23;55.42;100355.44;5043178;28;20642;-64
2022/07/04 05:00:39;;;;;;;8.70;4.50;;;;;;;25.42;54.76;100361.78;5047327;28;20051;-64
2022/07/04 05:03:04;;;;;;;10.50;4.90;;;;;;;25.51;54.17;100350.28;5042136;28;20063;-64
2022/07/04 05:05:30;;;;;;;11.15;4.97;;;;;;;25.73;53.41;100356.13;5048404;28;20384;-64
2022/07/04 05:07:55;;;;;;;7.13;4.15;;;;;;;25.94;52.85;100358.34;5032834;28;20147;-65
2022/07/04 05:10:21;;;;;;;11.98;4.88;;;;;;;26.09;52.82;100362.38;5048157;28;20083;-63
2022/07/04 05:12:46;;;;;;;7.95;4.32;;;;;;;26.25;52.56;100358.94;5048630;28;20468;-62
2022/07/04 05:15:12;;;;;;;10.27;4.50;;;;;;;26.41;52.03;100350.03;5048140;28;20095;-64
2022/07/04 05:17:37;;;;;;;5.57;4.68;;;;;;;26.62;51.29;100362.41;5052153;28;20108;-64
2022/07/04 05:20:03;;;;;;;10.07;4.75;;;;;;;26.69;51.02;100335.59;5050873;28;20031;-64
2022/07/04 05:22:28;;;;;;;10.60;4.63;;;;;;;26.96;50.68;100342.34;5039149;28;20112;-63
2022/07/04 05:24:54;;;;;;;13.85;5.07;;;;;;;27.17;49.88;100349.09;5049677;28;20017;-64
2022/07/04 05:27:20;;;;;;;6.80;4.15;;;;;;;27.32;50.03;100344.84;5043530;28;20483;-64
2022/07/04 05:29:45;;;;;;;11.95;4.60;;;;;;;27.58;48.84;100344.28;5034381;28;20040;-64
2022/07/04 05:32:11;;;;;;;9.57;4.05;;;;;;;27.79;48.51;100351.03;5043699;28;20021;-64
2022/07/04 05:34:36;;;;;;;12.18;5.05;;;;;;;27.81;48.02;100333.16;5042353;28;20095;-64
2022/07/04 05:37:03;;;;;;;11.52;4.15;;;;;;;28.07;47.61;100348.28;5035430;28;20028;-64
2022/07/04 05:39:29;;;;;;;13.20;4.75;;;;;;;28.13;47.65;100350.91;5034053;28;20562;-64
2022/07/04 05:41:55;;;;;;;10.35;5.13;;;;;;;28.35;47.31;100362.06;5032384;28;20026;-63
2022/07/04 05:44:20;;;;;;;11.73;4.25;;;;;;;28.53;46.74;100356.31;5031972;28;20037;-64
2022/07/04 05:46:46;;;;;;;10.35;4.78;;;;;;;28.76;46.42;100353.44;5031804;28;20113;-64
2022/07/04 05:49:11;;;;;;;5.95;4.13;;;;;;;29.02;45.22;100357.41;5049635;28;20039;-65
2022/07/04 05:51:37;;;;;;;9.45;4.07;;;;;;;29.25;44.54;100352.53;5051856;28;20207;-63
2022/07/04 05:54:02;;;;;;;6.45;4.30;;;;;;;29.32;43.23;100338.50;5051623;28;20128;-64
2022/07/04 05:56:28;;;;;;;9.00;3.97;;;;;;;29.56;42.12;100349.06;5052206;28;20135;-64
2022/07/04 05:58:53;;;;;;;8.65;4.20;;;;;;;29.59;41.88;100340.25;5032402;28;20029;-64
2022/07/04 06:01:19;;;;;;;6.43;4.00;;;;;;;29.59;42.11;100317.28;5031866;28;20385;-63
2022/07/04 06:03:44;;;;;;;7.55;3.88;;;;;;;29.89;41.96;100343.41;5031918;28;20104;-65
2022/07/04 06:06:10;;;;;;;5.15;3.70;;;;;;;30.08;41.61;100357.75;5031031;28;20025;-64
2022/07/04 06:08:35;;;;;;;6.45;3.70;;;;;;;30.26;40.79;100355.47;5041950;28;20025;-64
2022/07/04 06:11:03;;;;;;;6.45;3.63;;;;;;;30.41;40.69;100352.00;5031806;28;20506;-65
2022/07/04 06:13:28;;;;;;;7.50;3.20;;;;;;;30.66;39.66;100357.75;5042674;28;20501;-65
2022/07/04 06:15:54;;;;;;;4.97;3.72;;;;;;;30.84;39.44;100357.38;5051431;28;20136;-63
2022/07/04 06:18:20;;;;;;;10.65;3.40;;;;;;;30.89;38.75;100360.19;5043397;28;20098;-64
2022/07/04 06:20:45;;;;;;;6.53;3.28;;;;;;;30.93;39.27;100358.56;5031346;28;20037;-64
2022/07/04 06:23:11;;;;;;;4.40;3.42;;;;;;;30.96;39.37;100357.19;5031143;28;20032;-63
2022/07/04 06:25:36;;;;;;;5.50;2.60;;;;;;;31.08;39.09;100358.63;5036535;28;20391;-64
2022/07/04 06:28:02;;;;;;;6.47;2.78;;;;;;;31.23;38.53;100361.50;5042671;28;20025;-65
2022/07/04 06:30:27;;;;;;;4.40;3.13;;;;;;;31.33;38.13;100353.28;5036089;28;20464;-64
2022/07/04 06:32:55;;;;;;;7.05;3.05;;;;;;;31.35;37.92;100348.31;5044120;28;20025;-64
2022/07/04 06:35:44;;;;;;;3.50;3.00;;;;;;;31.43;37.18;100361.66;5031117;28;20503;-63
2022/07/04 06:38:11;;;;;;;8.38;3.05;;;;;;;31.58;37.33;100353.41;5031213;28;20029;-64
2022/07/04 06:40:37;;;;;;;5.13;3.08;;;;;;;31.68;37.01;100363.69;5030898;28;20029;-64
2022/07/04 06:43:03;;;;;;;5.20;2.70;;;;;;;31.80;36.77;100361.53;5044623;28;20029;-64
2022/07/04 06:45:29;;;;;;;8.98;2.80;;;;;;;31.92;35.96;100357.44;5051012;28;20425;-65
2022/07/04 06:47:55;;;;;;;5.25;2.50;;;;;;;31.88;35.62;100347.16;5050907;28;20163;-64
2022/07/04 06:50:21;;;;;;;7.15;2.38;;;;;;;32.08;34.93;100353.59;5050687;28;20036;-64
2022/07/04 06:52:46;;;;;;;5.00;2.20;;;;;;;32.14;34.42;100357.25;5040084;28;20045;-65
2022/07/04 06:55:12;;;;;;;4.03;2.20;;;;;;;32.23;33.53;100358.34;5048802;28;20162;-65
2022/07/04 06:57:38;;;;;;;2.60;2.40;;;;;;;32.21;34.35;100355.84;5031879;28;20040;-64
2022/07/04 07:00:05;;;;;;;2.08;1.98;;;;;;;32.20;34.38;100354.19;5045367;28;20017;-65
2022/07/04 07:02:31;;;;;;;2.80;2.20;;;;;;;32.19;34.46;100346.13;5050689;28;20028;-65
2022/07/04 07:04:56;;;;;;;2.40;2.20;;;;;;;32.38;33.70;100358.41;5045671;28;20033;-65
2022/07/04 07:07:24;;;;;;;3.17;2.00;;;;;;;32.51;33.29;100358.72;5050622;28;20118;-65
2022/07/04 07:09:54;;;;;;;2.25;2.05;;;;;;;32.53;33.40;100338.97;5047549;28;20033;-65
2022/07/04 07:12:20;;;;;;;6.93;2.10;;;;;;;32.77;32.50;100353.13;5030527;28;22166;-65
2022/07/04 07:14:45;;;;;;;8.60;2.83;;;;;;;32.92;31.82;100353.16;5030472;28;20032;-65
2022/07/04 07:17:11;;;;;;;13.55;2.63;;;;;;;33.02;31.79;100361.47;5044432;28;20025;-64
2022/07/04 07:19:37;;;;;;;3.08;2.10;;;;;;;33.16;31.45;100354.22;5036113;28;20525;-64
2022/07/04 07:22:02;;;;;;;2.80;1.77;;;;;;;33.36;30.10;100354.22;5048533;28;20036;-63
2022/07/04 07:24:30;;;;;;;2.10;1.65;;;;;;;33.35;30.34;100342.22;5034547;28;20057;-64
2022/07/04 07:26:57;;;;;;;2.20;1.50;;;;;;;33.32;30.98;100345.56;5038723;28;20025;-64
2022/07/04 07:29:23;;;;;;;2.92;1.80;;;;;;;33.42;30.45;100348.34;5035255;28;20066;-66
2022/07/04 07:31:48;;;;;;;3.95;2.00;;;;;;;33.26;30.50;100313.31;5032612;28;20087;-63
2022/07/04 07:34:13;;;;;;;10.68;1.98;;;;;;;33.40;30.36;100333.06;5035450;28;20110;-65
2022/07/04 07:36:39;;;;;;;3.33;1.80;;;;;;;33.30;29.92;100322.75;5042810;28;20041;-64
2022/07/04 07:39:05;;;;;;;7.57;1.90;;;;;;;33.25;29.76;100320.00;5041328;28;20040;-65
2022/07/04 07:41:30;;;;;;;2.83;1.83;;;;;;;33.25;30.69;100330.28;5049509;28;20040;-64
2022/07/04 07:43:56;;;;;;;5.55;1.60;;;;;;;33.28;30.16;100333.34;5030078;28;20119;-65
2022/07/04 07:46:21;;;;;;;2.50;1.88;;;;;;;33.33;30.60;100335.28;5029615;28;20029;-64
2022/07/04 07:48:47;;;;;;;4.25;1.73;;;;;;;33.33;30.61;100318.59;5029592;28;20475;-65
2022/07/04 07:51:13;;;;;;;6.32;1.65;;;;;;;33.51;30.39;100335.50;5033221;28;20086;-64
2022/07/04 07:53:40;;;;;;;1.90;1.58;;;;;;;33.59;29.38;100329.34;5030971;28;20228;-65
2022/07/04 07:56:05;;;;;;;4.22;1.60;;;;;;;33.55;29.85;100331.03;5029519;28;20025;-64
2022/07/04 07:58:31;;;;;;;3.95;2.15;;;;;;;33.51;29.89;100318.81;5029698;28;20036;-65
2022/07/04 08:00:56;;;;;;;5.18;1.73;;;;;;;33.46;30.27;100331.94;5029444;28;20029;-65
2022/07/04 08:06:06;;;;;;;6.25;2.15;;;;;;;33.58;29.96;100318.50;5029522;28;20095;-64
2022/07/04 08:08:32;;;;;;;3.95;1.50;;;;;;;33.58;30.01;100319.34;5033623;28;20471;-64
2022/07/04 08:10:57;;;;;;;3.10;1.77;;;;;;;33.61;29.90;100321.56;5043615;28;20055;-64
2022/07/04 08:13:23;;;;;;;5.63;2.17;;;;;;;33.44;29.94;100286.84;5039328;28;20076;-65
2022/07/04 08:15:48;;;;;;;2.03;1.60;;;;;;;33.65;30.00;100322.63;5049195;28;20028;-65
2022/07/04 08:18:14;;;;;;;4.40;1.90;;;;;;;33.72;29.92;100316.78;5042156;28;20088;-64
2022/07/04 08:20:40;;;;;;;3.72;1.77;;;;;;;33.73;30.20;100310.94;5043485;28;20025;-64
2022/07/04 08:23:05;;;;;;;8.30;2.00;;;;;;;33.92;29.90;100319.47;5049240;28;20495;-65
2022/07/04 08:25:31;;;;;;;3.92;1.63;;;;;;;33.88;30.03;100310.03;5037199;28;20037;-65
2022/07/04 08:27:56;;;;;;;4.70;2.17;;;;;;;33.95;29.81;100313.34;5031968;28;20074;-65
2022/07/04 08:30:22;;;;;;;9.73;2.10;;;;;;;33.97;30.15;100309.13;5031696;28;20035;-66
2022/07/04 08:32:47;;;;;;;10.93;2.58;;;;;;;34.00;30.35;100310.50;5032156;28;20025;-66
2022/07/04 08:35:12;;;;;;;5.88;1.90;;;;;;;34.02;30.17;100299.91;5031846;28;20029;-65
2022/07/04 08:37:40;;;;;;;5.38;2.22;;;;;;;33.95;30.77;100299.41;5035118;28;20026;-64
2022/07/04 08:40:07;;;;;;;5.78;2.03;;;;;;;34.07;30.35;100311.84;5052345;28;20028;-65
2022/07/04 08:42:38;;;;;;;3.22;2.10;;;;;;;34.15;30.60;100307.63;5033344;28;20079;-65
2022/07/04 08:45:04;;;;;;;6.03;1.95;;;;;;;34.14;30.97;100300.41;5037156;28;20026;-63
2022/07/04 08:47:33;;;;;;;10.70;2.60;;;;;;;34.26;30.60;100309.19;5052746;28;20590;-65
2022/07/04 08:50:06;;;;;;;6.90;2.28;;;;;;;34.21;31.09;100306.47;5052354;28;20105;-71
2022/07/04 08:52:37;;;;;;;4.30;2.00;;;;;;;34.23;31.56;100307.84;5034062;28;20073;-73
2022/07/04 09:00:35;;;;;;;4.75;2.08;;;;;;;34.51;31.06;100304.31;5052830;28;20102;-73
2022/07/04 09:03:02;;;;;;;5.57;2.25;;;;;;;34.53;31.09;100299.25;5052282;28;20044;-73
2022/07/04 09:05:28;;;;;;;5.00;2.03;;;;;;;34.51;31.24;100286.75;5049553;28;20116;-73
2022/07/04 09:07:55;;;;;;;4.70;2.22;;;;;;;34.58;30.66;100290.03;5032254;28;20105;-72
2022/07/04 09:10:21;;;;;;;10.43;2.58;;;;;;;34.60;30.40;100282.22;5032313;28;20107;-72
2022/07/04 09:12:47;;;;;;;12.15;2.30;;;;;;;34.57;30.23;100293.94;5032730;28;20026;-73
2022/07/04 09:15:13;;;;;;;13.13;2.30;;;;;;;34.42;30.42;100267.03;5032362;28;20092;-72
2022/07/04 09:17:39;;;;;;;8.95;2.05;;;;;;;34.72;29.82;100293.78;5032570;28;20395;-72
2022/07/04 09:20:17;;;;;;;2.67;1.80;;;;;;;34.73;29.28;100284.31;5032816;28;20044;-73
2022/07/04 09:22:43;;;;;;;7.65;2.55;;;;;;;34.69;29.80;100283.25;5048808;28;20104;-71
2022/07/04 09:25:12;;;;;;;2.45;1.80;;;;;;;34.65;29.72;100275.75;5052283;28;20544;-73
2022/07/04 09:27:40;;;;;;;2.80;1.83;;;;;;;34.63;30.13;100275.22;5052290;28;20476;-73
2022/07/04 09:30:07;;;;;;;5.80;2.22;;;;;;;34.65;30.06;100282.16;5052430;28;20460;-73
2022/07/04 09:33:00;;;;;;;3.30;2.00;;;;;;;34.69;30.27;100276.81;5052113;28;20029;-72
2022/07/04 09:35:27;;;;;;;2.92;1.65;;;;;;;34.74;30.11;100271.19;5052110;28;20036;-73
2022/07/04 09:38:01;;;;;;;3.88;1.98;;;;;;;34.72;29.82;100268.69;5051943;28;20048;-72
2022/07/04 09:40:28;;;;;;;;;;;;;;;34.75;29.80;100276.47;5052083;28;20056;-72
2022/07/04 09:42:55;;;;;;;2.83;1.63;;;;;;;34.84;28.99;100268.31;5050956;28;19927;-73
2022/07/04 09:45:23;;;;;;;4.95;1.90;;;;;;;34.65;29.02;100234.78;5031871;28;20064;-72
2022/07/04 09:47:50;;;;;;;3.45;1.88;;;;;;;34.99;29.11;100279.31;5032018;28;20029;-72
2022/07/04 09:50:18;;;;;;;8.25;1.98;;;;;;;35.00;29.10;100273.44;5031962;28;20033;-72
2022/07/04 09:52:49;;;;;;;2.38;1.60;;;;;;;34.97;28.80;100262.88;5031509;28;20125;-72
2022/07/04 09:55:41;;;;;;;2.95;1.77;;;;;;;35.04;29.10;100266.16;5050353;28;20128;-72
2022/07/04 09:58:12;;;;;;;2.35;1.73;;;;;;;35.07;28.65;100268.34;5050586;28;20506;-66
2022/07/04 10:00:39;;;;;;;3.00;1.40;;;;;;;35.11;28.74;100260.22;5027584;28;20037;-64
2022/07/04 10:03:26;;;;;;;7.65;2.13;;;;;;;35.18;28.67;100264.31;5036218;28;20449;-64
2022/07/04 10:06:06;;;;;;;6.85;2.35;;;;;;;35.18;28.46;100266.28;5042642;28;20784;-65
2022/07/04 10:08:32;;;;;;;4.28;1.90;;;;;;;35.21;27.89;100255.38;5039615;28;20408;-65
2022/07/04 10:10:59;;;;;;;4.45;1.60;;;;;;;35.18;28.67;100257.91;5039382;28;20077;-65
2022/07/04 10:13:25;;;;;;;5.35;1.95;;;;;;;35.13;28.61;100247.63;5031382;28;20026;-66
2022/07/04 10:15:51;;;;;;;6.78;2.17;;;;;;;35.22;28.41;100248.66;5031272;28;20025;-65
2022/07/04 10:18:21;;;;;;;9.23;1.73;;;;;;;35.23;28.51;100241.94;5046325;28;20044;-65
2022/07/04 10:20:48;;;;;;;2.20;1.90;;;;;;;35.26;28.67;100246.06;5050982;28;20044;-65
2022/07/04 10:23:15;;;;;;;3.33;1.60;;;;;;;35.30;28.33;100236.81;5050976;28;20033;-64
2022/07/04 10:25:41;;;;;;;4.95;1.83;;;;;;;35.38;27.81;100249.31;5048465;28;20052;-72
2022/07/04 10:28:07;;;;;;;4.75;1.58;;;;;;;35.39;28.10;100245.38;5051104;28;20390;-73
2022/07/04 10:30:36;;;;;;;11.88;1.70;;;;;;;35.36;27.89;100240.44;5050855;28;20037;-72
2022/07/04 10:33:08;;;;;;;9.55;1.85;;;;;;;35.37;27.61;100219.75;5047377;28;20076;-72
2022/07/04 10:35:51;;;;;;;5.47;2.00;;;;;;;35.40;27.44;100219.97;5030960;28;20041;-73
2022/07/04 10:38:18;;;;;;;2.10;1.30;;;;;;;35.37;27.89;100220.59;5041438;28;20029;-72
2022/07/04 10:40:48;;;;;;;3.13;1.50;;;;;;;35.43;27.89;100227.75;5038255;28;20159;-72
2022/07/04 10:43:38;;;;;;;7.38;1.30;;;;;;;35.50;27.72;100230.19;5031022;28;20049;-72
2022/07/04 10:46:15;;;;;;;10.50;1.73;;;;;;;35.56;27.29;100221.41;5048370;28;20017;-73
2022/07/04 10:48:51;;;;;;;4.72;1.90;;;;;;;35.64;26.59;100219.91;5038568;28;20110;-72
2022/07/04 10:51:32;;;;;;;4.72;1.50;;;;;;;35.59;26.74;100237.56;5031099;28;20035;-72
2022/07/04 10:54:03;;;;;;;4.43;1.38;;;;;;;35.71;25.84;100217.56;5030369;28;20468;-71
2022/07/04 10:56:28;;;;;;;2.20;1.35;;;;;;;35.71;25.88;100221.22;5030754;28;20021;-72
2022/07/04 10:58:57;;;;;;;2.35;1.35;;;;;;;35.68;25.67;100213.44;5038502;28;20170;-71
2022/07/04 11:01:23;;;;;;;10.07;1.70;;;;;;;35.60;26.09;100208.53;5038237;28;20048;-71
2022/07/04 11:03:53;;;;;;;8.77;1.63;;;;;;;35.52;26.13;100191.66;5030576;28;20029;-72
2022/07/04 11:06:43;;;;;;;6.13;1.23;;;;;;;35.58;25.85;100199.63;5030447;28;20045;-72
2022/07/04 11:09:23;;;;;;;4.25;1.40;;;;;;;35.54;26.12;100208.91;5035906;28;20463;-72
2022/07/04 11:12:03;;;;;;;14.00;2.00;;;;;;;35.61;25.68;100204.59;5035913;28;20024;-73
2022/07/04 11:14:43;;;;;;;2.60;1.33;;;;;;;35.60;25.45;100196.53;5043468;28;20803;-73
2022/07/04 11:17:12;;;;;;;2.70;1.30;;;;;;;35.63;25.32;100194.00;5042394;28;20037;-73
2022/07/04 11:19:38;;;;;;;4.60;1.45;;;;;;;35.65;25.79;100197.28;5043528;28;20030;-73
2022/07/04 11:22:09;;;;;;;19.00;2.30;;;;;;;35.67;25.07;100169.91;5030092;28;20048;-73
2022/07/04 11:24:35;;;;;;;5.25;1.50;;;;;;;35.79;25.33;100194.56;5050078;28;20032;-72
2022/07/04 11:27:02;;;;;;;5.68;1.70;;;;;;;35.68;25.39;100177.16;5041284;28;20025;-72
2022/07/04 11:29:29;;;;;;;3.75;1.50;;;;;;;35.79;25.20;100178.66;5030071;28;20095;-72
2022/07/04 11:31:55;;;;;;;4.18;1.40;;;;;;;35.81;25.08;100168.03;5032752;28;20026;-73
2022/07/04 11:34:21;;;;;;;18.02;1.98;;;;;;;35.79;24.78;100170.28;5034057;28;20411;-72
2022/07/04 11:36:49;;;;;;;3.92;1.20;;;;;;;35.83;24.63;100185.31;5048267;28;20747;-72